Hlavní strana
METAR-TAF:

METAR-TAF

Letiště :

Bergen, Norsko

zeměpisná šířka: 60-17N, zeměpisná délka: 005-14E, výška: 5 m

Aktuální stav počasí

Zpráva byla vytvořena před 20 minutami, v 05:50 UTC
Jižní vítr 20 kt
Teplota 11°C
Vlhkost vzduchu 76%
Tlak 1025 hPa
Viditelnost 10 km a více
Oblačno až skoro zataženo ve výšce 1800 ft

METAR: ENBR 160550Z 17020KT 9999 BKN018 11/07 Q1025 NOSIG RMK WIND 1200FT 16029G39KT

Čas: 07:10 (06:10 UTC)

Předpověď počasí

Předpověď platná od 16 v 06 UTC do 17 v 06 UTC
Jižní vítr 12 kt
Viditelnost 10 km a více
Polojasno ve výšce 1000 ft
Oblačno až skoro zataženo ve výšce 1800 ft
Dočasný
od 16 v 06 UTC do 16 v 08 UTC
Jižní vítr 20 kt s nárazy do 30 kt
Dočasný
od 16 v 06 UTC do 16 v 18 UTC
Viditelnost: 4000 m
Oblačno až skoro zataženo ve výšce 800 ft
mrholení, kouřmo
Změna
od 16 v 18 UTC do 16 v 20 UTC
vítr z různých směrů 5 kt

TAF: ENBR 1606/1706 17012KT 9999 SCT010 BKN018 TEMPO 1606/1608 18020G30KT TEMPO 1606/1618 4000 DZ BR BKN008 BECMG 1618/1620 VRB05KT

Stav a předpovědi počasí z více než 4 000 letišť (zprávy METAR a TAF).

Červené a žluté tečky na mapě představují dostupné meteorologické stanice.

Když kurzor umístíte na tečku, zobrazí se název stanice.

Pak kliknutím zobrazíte stav a předpověď počasí.

Chcete-li změnit mapu, kliknutím na zelené tlačítko se znaménkem +mapu přiblížíte, kliknutím na zelené tlačítko se znaménkem – mapu oddálíte a kliknutím na zelené šipky přejdete na sousední mapy.


METAR-TAF: